MAPA DE AEROPUERTO

INFORMACIÓN METAR y TAF


Deprecated: The each() function is deprecated. This message will be suppressed on further calls in /home/customer/www/clickair-va.com/public_html/VAM/vam/helpers/get_metar.php on line 20
METAR FOR GCGM
ADDS - METARS form results

(0254 UTC 25 May 2022)
Data provider http://aviationweather.gov/metar/data/
 
METAR text: GCGM 250230Z AUTO VRB10G21KT 9999 OVC033 20/12 Q1018 RMK R09/36006KT 270V070 ARP/01011KT 320V050
Conditions at: GCGM (LA GOMERA ARPT , ES) observed 0230 UTC 25 May 2022
Temperature: 20.0°C (68°F)
Dewpoint: 12.0°C (54°F) [RH = 60%]
Pressure (altimeter): 30.06 inches Hg (1018.0 mb)
Winds: variable direction winds at 12 MPH (10 knots; 5.1 m/s)
gusting to 24 MPH (21 knots; 10.8 m/s)
Visibility: 6 or more miles (10+ km)
Ceiling: 3300 feet AGL
Clouds: overcast cloud deck at 3300 feet AGL
Weather: no significant weather observed at this time

METAR text: GCGM 250200Z AUTO VRB07KT 9999 OVC027 20/12 Q1018 RMK R09/36005KT 300V060 ARP/02008KT 330V080
Conditions at: GCGM (LA GOMERA ARPT , ES) observed 0200 UTC 25 May 2022
Temperature: 20.0°C (68°F)
Dewpoint: 12.0°C (54°F) [RH = 60%]
Pressure (altimeter): 30.06 inches Hg (1018.0 mb)
Winds: variable direction winds at 8 MPH (7 knots; 3.6 m/s)
Visibility: 6 or more miles (10+ km)
Ceiling: 2700 feet AGL
Clouds: overcast cloud deck at 2700 feet AGL
Weather: no significant weather observed at this time

Forecast for: GCGM (LA GOMERA ARPT , ES)
Text: TAF GCGM 250200Z 2503/2603 36008KT 9999 SCT030 TX25/2514Z TN18/2506Z
Forecast period: 0300 to 1000 UTC 25 May 2022
Forecast type: FROM: standard forecast or significant change
Winds: from the N (360 degrees) at 9 MPH (8 knots; 4.1 m/s)
Visibility: 6 or more miles (10+ km)
Ceiling: at least 12,000 feet AGL
Clouds: scattered clouds at 3000 feet AGL
Weather: no significant weather forecast for this period
Text: BECMG 2510/2512 22010KT
Forecast period: 1000 UTC 25 May 2022 to 0300 UTC 26 May 2022
Forecast type: BECOMING: Conditions expected to become as follows by 1200 UTC 25 May 2022
Winds: from the SW (220 degrees) at 12 MPH (10 knots; 5.1 m/s)
Visibility: 6 or more miles (10+ km)
Ceiling: at least 12,000 feet AGL
Clouds: scattered clouds at 3000 feet AGL
Weather: no significant weather forecast for this period